CYVP

Kuujjuaq Airport

Kuujjuaq, Quebec, Canada
METAR CYVP 181205Z 22007KT 120V220 15SM -RA BKN088 BKN110 BKN200 11/05 A2942 RMK AC5AC1CI1 SLP965 DENSITY ALT 300FT
Observed Flight Rules
Jun-18 @ 12:05 UTC (60 minutes ago) Visual Flight Rules
Wind Visibility Clouds Conditions
220° at 7 knots 15 miles
  • Broken at 8,800' AGL
  • Broken at 11,000' AGL
  • Broken at 20,000' AGL
  • Light Rain
Temperatures Readings
Current 11°C / 52°F
Dewpoint 5°C / 41°F
Humidity 67%
Altimeter 29.42" Hg
Pressure 996.5 hPa
Elevation 60
METAR CYVP 181205Z 22007KT 120V220 15SM -RA BKN088 BKN110 BKN200 11/05 A2942 RMK AC5AC1CI1 SLP965 DENSITY ALT 300FT
Observed Flight Rules
Jun-18 @ 12:05 UTC
(60 minutes ago)
VFR
Wind Visibility
220° at 7 knots 15 miles
Clouds
  • Broken at 8,800' AGL
  • Broken at 11,000' AGL
  • Broken at 20,000' AGL
Conditions
  • Light Rain
Temperature Dewpoint
11°C / 52°F 5°C / 41°F
Humidity Altimeter Pressure
67% 29.42" Hg 996.5 hPa